Terminal Aerodrome Forecast
Issued by NWS Charleston, WV

Home | Current Version | Previous Version | Text Only | Print | Product List | Glossary On
Versions: 1 2 3 4 5 6 7 8 9 10 11 12 13 14 15 16 17 18 19 20 21 22 23 24 25 26
015
FTUS41 KRLX 212322
TAFEKN
TAF
KEKN 212322Z 2200/2224 00000KT P6SM BKN035
     FM220500 00000KT P6SM BKN030
     FM221000 00000KT P6SM BKN045
     FM221500 18006KT P6SM BKN200
     FM221700 18009G16KT P6SM BKN250=

USA.gov is the U.S. government's official web portal to all federal, state and local government web resources and services.